sensor_id;sensor_type;location;lat;lon;timestamp;P1;durP1;ratioP1;P2;durP2;ratioP2
74152;SDS011;62505;46.070;14.492;2022-10-16T00:00:35;18.70;;;14.27;;
74152;SDS011;62505;46.070;14.492;2022-10-16T00:03:04;18.67;;;13.82;;
74152;SDS011;62505;46.070;14.492;2022-10-16T00:05:31;17.65;;;13.02;;
74152;SDS011;62505;46.070;14.492;2022-10-16T00:07:59;21.02;;;14.57;;
74152;SDS011;62505;46.070;14.492;2022-10-16T00:10:29;18.63;;;13.95;;
74152;SDS011;62505;46.070;14.492;2022-10-16T00:12:56;19.05;;;14.43;;
74152;SDS011;62505;46.070;14.492;2022-10-16T00:15:22;17.55;;;13.70;;
74152;SDS011;62505;46.070;14.492;2022-10-16T00:17:49;17.83;;;14.27;;
74152;SDS011;62505;46.070;14.492;2022-10-16T00:20:16;19.73;;;14.20;;
74152;SDS011;62505;46.070;14.492;2022-10-16T00:22:43;18.70;;;13.45;;
74152;SDS011;62505;46.070;14.492;2022-10-16T00:25:10;19.80;;;14.25;;
74152;SDS011;62505;46.070;14.492;2022-10-16T00:27:38;18.92;;;14.25;;
74152;SDS011;62505;46.070;14.492;2022-10-16T00:30:06;17.05;;;13.93;;
74152;SDS011;62505;46.070;14.492;2022-10-16T00:32:34;19.30;;;14.00;;
74152;SDS011;62505;46.070;14.492;2022-10-16T00:35:01;17.35;;;13.65;;
74152;SDS011;62505;46.070;14.492;2022-10-16T00:37:28;18.35;;;14.18;;
74152;SDS011;62505;46.070;14.492;2022-10-16T00:39:55;18.90;;;14.90;;
74152;SDS011;62505;46.070;14.492;2022-10-16T00:42:22;19.75;;;13.75;;
74152;SDS011;62505;46.070;14.492;2022-10-16T00:44:52;18.08;;;14.20;;
74152;SDS011;62505;46.070;14.492;2022-10-16T00:47:21;17.42;;;13.63;;
74152;SDS011;62505;46.070;14.492;2022-10-16T00:49:51;16.85;;;12.82;;
74152;SDS011;62505;46.070;14.492;2022-10-16T00:52:22;17.73;;;14.38;;
74152;SDS011;62505;46.070;14.492;2022-10-16T00:54:49;18.60;;;13.65;;
74152;SDS011;62505;46.070;14.492;2022-10-16T00:57:18;19.48;;;14.63;;
74152;SDS011;62505;46.070;14.492;2022-10-16T00:59:45;19.48;;;13.77;;
74152;SDS011;62505;46.070;14.492;2022-10-16T01:02:14;19.08;;;14.07;;
74152;SDS011;62505;46.070;14.492;2022-10-16T01:04:42;17.55;;;13.98;;
74152;SDS011;62505;46.070;14.492;2022-10-16T01:07:12;21.02;;;14.23;;
74152;SDS011;62505;46.070;14.492;2022-10-16T01:09:51;17.65;;;13.73;;
74152;SDS011;62505;46.070;14.492;2022-10-16T01:12:28;19.58;;;14.07;;
74152;SDS011;62505;46.070;14.492;2022-10-16T01:15:04;17.20;;;13.75;;
74152;SDS011;62505;46.070;14.492;2022-10-16T01:17:38;19.40;;;14.52;;
74152;SDS011;62505;46.070;14.492;2022-10-16T01:20:12;18.27;;;13.55;;
74152;SDS011;62505;46.070;14.492;2022-10-16T01:22:50;17.92;;;13.63;;
74152;SDS011;62505;46.070;14.492;2022-10-16T01:25:30;20.35;;;14.30;;
74152;SDS011;62505;46.070;14.492;2022-10-16T01:28:07;18.38;;;13.57;;
74152;SDS011;62505;46.070;14.492;2022-10-16T01:30:38;21.30;;;14.30;;
74152;SDS011;62505;46.070;14.492;2022-10-16T01:33:10;17.30;;;13.52;;
74152;SDS011;62505;46.070;14.492;2022-10-16T01:35:42;18.85;;;13.70;;
74152;SDS011;62505;46.070;14.492;2022-10-16T01:38:12;17.30;;;13.40;;
74152;SDS011;62505;46.070;14.492;2022-10-16T01:40:44;17.60;;;13.38;;
74152;SDS011;62505;46.070;14.492;2022-10-16T01:43:15;17.92;;;13.55;;
74152;SDS011;62505;46.070;14.492;2022-10-16T01:45:45;16.80;;;12.70;;
74152;SDS011;62505;46.070;14.492;2022-10-16T01:48:13;17.67;;;13.45;;
74152;SDS011;62505;46.070;14.492;2022-10-16T01:50:44;18.10;;;13.45;;
74152;SDS011;62505;46.070;14.492;2022-10-16T01:53:20;18.98;;;14.10;;
74152;SDS011;62505;46.070;14.492;2022-10-16T01:55:49;17.45;;;13.52;;
74152;SDS011;62505;46.070;14.492;2022-10-16T01:58:21;17.05;;;13.32;;
74152;SDS011;62505;46.070;14.492;2022-10-16T02:00:51;19.70;;;13.95;;
74152;SDS011;62505;46.070;14.492;2022-10-16T02:03:20;19.88;;;15.00;;
74152;SDS011;62505;46.070;14.492;2022-10-16T02:05:49;18.08;;;13.90;;
74152;SDS011;62505;46.070;14.492;2022-10-16T02:08:18;16.88;;;13.48;;
74152;SDS011;62505;46.070;14.492;2022-10-16T02:10:46;17.88;;;13.63;;
74152;SDS011;62505;46.070;14.492;2022-10-16T02:13:14;18.15;;;13.55;;
74152;SDS011;62505;46.070;14.492;2022-10-16T02:15:47;18.88;;;14.68;;
74152;SDS011;62505;46.070;14.492;2022-10-16T02:18:14;19.23;;;14.02;;
74152;SDS011;62505;46.070;14.492;2022-10-16T02:20:43;16.80;;;13.45;;
74152;SDS011;62505;46.070;14.492;2022-10-16T02:23:23;19.85;;;14.00;;
74152;SDS011;62505;46.070;14.492;2022-10-16T02:25:55;18.48;;;14.00;;
74152;SDS011;62505;46.070;14.492;2022-10-16T02:28:26;17.80;;;13.95;;
74152;SDS011;62505;46.070;14.492;2022-10-16T02:30:59;17.33;;;13.38;;
74152;SDS011;62505;46.070;14.492;2022-10-16T02:33:29;17.83;;;13.60;;
74152;SDS011;62505;46.070;14.492;2022-10-16T02:35:58;18.27;;;13.80;;
74152;SDS011;62505;46.070;14.492;2022-10-16T02:38:25;17.40;;;13.80;;
74152;SDS011;62505;46.070;14.492;2022-10-16T02:40:55;18.45;;;13.88;;
74152;SDS011;62505;46.070;14.492;2022-10-16T02:43:24;16.20;;;12.82;;
74152;SDS011;62505;46.070;14.492;2022-10-16T02:45:52;19.77;;;14.95;;
74152;SDS011;62505;46.070;14.492;2022-10-16T02:48:20;19.13;;;13.07;;
74152;SDS011;62505;46.070;14.492;2022-10-16T02:50:47;17.77;;;13.73;;
74152;SDS011;62505;46.070;14.492;2022-10-16T02:53:14;16.92;;;13.18;;
74152;SDS011;62505;46.070;14.492;2022-10-16T02:55:40;14.90;;;12.27;;
74152;SDS011;62505;46.070;14.492;2022-10-16T02:58:07;17.55;;;13.40;;
74152;SDS011;62505;46.070;14.492;2022-10-16T03:00:34;16.80;;;12.68;;
74152;SDS011;62505;46.070;14.492;2022-10-16T03:03:01;16.67;;;13.23;;
74152;SDS011;62505;46.070;14.492;2022-10-16T03:05:30;17.15;;;13.30;;
74152;SDS011;62505;46.070;14.492;2022-10-16T03:07:56;17.63;;;13.10;;
74152;SDS011;62505;46.070;14.492;2022-10-16T03:10:25;16.95;;;13.30;;
74152;SDS011;62505;46.070;14.492;2022-10-16T03:12:52;18.05;;;13.25;;
74152;SDS011;62505;46.070;14.492;2022-10-16T03:15:19;17.35;;;12.98;;
74152;SDS011;62505;46.070;14.492;2022-10-16T03:17:45;18.42;;;13.00;;
74152;SDS011;62505;46.070;14.492;2022-10-16T03:20:12;18.25;;;13.93;;
74152;SDS011;62505;46.070;14.492;2022-10-16T03:22:41;16.85;;;13.52;;
74152;SDS011;62505;46.070;14.492;2022-10-16T03:25:08;19.42;;;14.07;;
74152;SDS011;62505;46.070;14.492;2022-10-16T03:27:35;17.83;;;13.60;;
74152;SDS011;62505;46.070;14.492;2022-10-16T03:30:02;17.98;;;13.48;;
74152;SDS011;62505;46.070;14.492;2022-10-16T03:32:29;16.85;;;13.05;;
74152;SDS011;62505;46.070;14.492;2022-10-16T03:34:56;16.13;;;13.13;;
74152;SDS011;62505;46.070;14.492;2022-10-16T03:37:23;17.27;;;13.00;;
74152;SDS011;62505;46.070;14.492;2022-10-16T03:39:51;17.95;;;13.55;;
74152;SDS011;62505;46.070;14.492;2022-10-16T03:42:18;16.08;;;12.70;;
74152;SDS011;62505;46.070;14.492;2022-10-16T03:44:45;17.33;;;13.70;;
74152;SDS011;62505;46.070;14.492;2022-10-16T03:47:12;15.05;;;12.70;;
74152;SDS011;62505;46.070;14.492;2022-10-16T03:49:39;18.90;;;13.82;;
74152;SDS011;62505;46.070;14.492;2022-10-16T03:52:06;15.77;;;13.23;;
74152;SDS011;62505;46.070;14.492;2022-10-16T03:54:33;19.63;;;12.95;;
74152;SDS011;62505;46.070;14.492;2022-10-16T03:57:01;17.17;;;12.77;;
74152;SDS011;62505;46.070;14.492;2022-10-16T03:59:28;18.02;;;13.05;;
74152;SDS011;62505;46.070;14.492;2022-10-16T04:01:55;16.48;;;12.93;;
74152;SDS011;62505;46.070;14.492;2022-10-16T04:04:21;16.17;;;12.60;;
74152;SDS011;62505;46.070;14.492;2022-10-16T04:06:49;16.40;;;13.48;;
74152;SDS011;62505;46.070;14.492;2022-10-16T04:09:16;17.35;;;12.52;;
74152;SDS011;62505;46.070;14.492;2022-10-16T04:11:43;16.23;;;12.57;;
74152;SDS011;62505;46.070;14.492;2022-10-16T04:14:12;18.55;;;13.70;;
74152;SDS011;62505;46.070;14.492;2022-10-16T04:16:39;16.38;;;12.50;;
74152;SDS011;62505;46.070;14.492;2022-10-16T04:19:06;17.27;;;13.48;;
74152;SDS011;62505;46.070;14.492;2022-10-16T04:21:32;17.27;;;13.25;;
74152;SDS011;62505;46.070;14.492;2022-10-16T04:23:59;15.60;;;12.45;;
74152;SDS011;62505;46.070;14.492;2022-10-16T04:26:26;15.52;;;12.75;;
74152;SDS011;62505;46.070;14.492;2022-10-16T04:28:53;17.20;;;13.20;;
74152;SDS011;62505;46.070;14.492;2022-10-16T04:31:22;18.50;;;13.13;;
74152;SDS011;62505;46.070;14.492;2022-10-16T04:33:49;17.38;;;13.68;;
74152;SDS011;62505;46.070;14.492;2022-10-16T04:36:15;16.80;;;13.05;;
74152;SDS011;62505;46.070;14.492;2022-10-16T04:38:42;16.92;;;13.50;;
74152;SDS011;62505;46.070;14.492;2022-10-16T04:41:09;15.82;;;12.55;;
74152;SDS011;62505;46.070;14.492;2022-10-16T04:43:36;18.33;;;13.30;;
74152;SDS011;62505;46.070;14.492;2022-10-16T04:46:03;16.00;;;12.45;;
74152;SDS011;62505;46.070;14.492;2022-10-16T04:48:32;17.95;;;13.35;;
74152;SDS011;62505;46.070;14.492;2022-10-16T04:50:59;15.75;;;12.80;;
74152;SDS011;62505;46.070;14.492;2022-10-16T04:53:27;17.65;;;13.05;;
74152;SDS011;62505;46.070;14.492;2022-10-16T04:55:53;15.98;;;13.20;;
74152;SDS011;62505;46.070;14.492;2022-10-16T04:58:21;16.77;;;12.82;;
74152;SDS011;62505;46.070;14.492;2022-10-16T05:00:48;17.13;;;12.57;;
74152;SDS011;62505;46.070;14.492;2022-10-16T05:03:14;14.35;;;11.75;;
74152;SDS011;62505;46.070;14.492;2022-10-16T05:05:43;14.98;;;11.73;;
74152;SDS011;62505;46.070;14.492;2022-10-16T05:08:11;16.75;;;13.25;;
74152;SDS011;62505;46.070;14.492;2022-10-16T05:10:39;15.00;;;12.25;;
74152;SDS011;62505;46.070;14.492;2022-10-16T05:13:07;17.13;;;12.48;;
74152;SDS011;62505;46.070;14.492;2022-10-16T05:15:35;16.05;;;13.00;;
74152;SDS011;62505;46.070;14.492;2022-10-16T05:18:02;16.35;;;12.30;;
74152;SDS011;62505;46.070;14.492;2022-10-16T05:20:29;16.08;;;13.13;;
74152;SDS011;62505;46.070;14.492;2022-10-16T05:22:57;17.25;;;13.25;;
74152;SDS011;62505;46.070;14.492;2022-10-16T05:25:24;15.88;;;12.45;;
74152;SDS011;62505;46.070;14.492;2022-10-16T05:27:51;14.80;;;11.90;;
74152;SDS011;62505;46.070;14.492;2022-10-16T05:30:18;16.63;;;13.27;;
74152;SDS011;62505;46.070;14.492;2022-10-16T05:32:46;15.98;;;12.13;;
74152;SDS011;62505;46.070;14.492;2022-10-16T05:35:13;14.18;;;11.75;;
74152;SDS011;62505;46.070;14.492;2022-10-16T05:37:41;16.38;;;12.75;;
74152;SDS011;62505;46.070;14.492;2022-10-16T05:40:10;15.10;;;12.38;;
74152;SDS011;62505;46.070;14.492;2022-10-16T05:42:37;14.90;;;12.73;;
74152;SDS011;62505;46.070;14.492;2022-10-16T05:45:05;17.83;;;12.88;;
74152;SDS011;62505;46.070;14.492;2022-10-16T05:47:34;16.30;;;13.15;;
74152;SDS011;62505;46.070;14.492;2022-10-16T05:50:01;14.70;;;12.27;;
74152;SDS011;62505;46.070;14.492;2022-10-16T05:52:29;18.10;;;13.18;;
74152;SDS011;62505;46.070;14.492;2022-10-16T05:54:56;16.92;;;13.10;;
74152;SDS011;62505;46.070;14.492;2022-10-16T05:57:24;22.77;;;14.02;;
74152;SDS011;62505;46.070;14.492;2022-10-16T05:59:51;20.35;;;13.00;;
74152;SDS011;62505;46.070;14.492;2022-10-16T06:02:18;19.65;;;13.95;;
74152;SDS011;62505;46.070;14.492;2022-10-16T06:05:13;19.60;;;13.07;;
74152;SDS011;62505;46.070;14.492;2022-10-16T06:07:40;19.83;;;13.20;;
74152;SDS011;62505;46.070;14.492;2022-10-16T06:10:07;23.52;;;13.68;;
74152;SDS011;62505;46.070;14.492;2022-10-16T06:12:36;21.58;;;13.60;;
74152;SDS011;62505;46.070;14.492;2022-10-16T06:15:03;18.00;;;13.68;;
74152;SDS011;62505;46.070;14.492;2022-10-16T06:17:31;23.38;;;14.35;;
74152;SDS011;62505;46.070;14.492;2022-10-16T06:19:58;17.55;;;13.30;;
74152;SDS011;62505;46.070;14.492;2022-10-16T06:22:25;21.67;;;13.93;;
74152;SDS011;62505;46.070;14.492;2022-10-16T06:24:51;19.08;;;13.48;;
74152;SDS011;62505;46.070;14.492;2022-10-16T06:27:18;21.00;;;14.40;;
74152;SDS011;62505;46.070;14.492;2022-10-16T06:29:46;16.60;;;13.32;;
74152;SDS011;62505;46.070;14.492;2022-10-16T06:32:13;21.27;;;14.90;;
74152;SDS011;62505;46.070;14.492;2022-10-16T06:34:40;17.45;;;13.43;;
74152;SDS011;62505;46.070;14.492;2022-10-16T06:37:07;18.30;;;14.02;;
74152;SDS011;62505;46.070;14.492;2022-10-16T06:39:34;20.75;;;13.93;;
74152;SDS011;62505;46.070;14.492;2022-10-16T06:42:01;21.25;;;14.23;;
74152;SDS011;62505;46.070;14.492;2022-10-16T06:44:28;19.05;;;14.50;;
74152;SDS011;62505;46.070;14.492;2022-10-16T06:46:56;22.25;;;15.13;;
74152;SDS011;62505;46.070;14.492;2022-10-16T06:49:23;21.98;;;15.85;;
74152;SDS011;62505;46.070;14.492;2022-10-16T06:51:50;26.42;;;16.92;;
74152;SDS011;62505;46.070;14.492;2022-10-16T06:54:17;21.60;;;16.38;;
74152;SDS011;62505;46.070;14.492;2022-10-16T06:56:44;25.85;;;15.85;;
74152;SDS011;62505;46.070;14.492;2022-10-16T06:59:10;23.17;;;15.40;;
74152;SDS011;62505;46.070;14.492;2022-10-16T07:01:37;23.02;;;17.27;;
74152;SDS011;62505;46.070;14.492;2022-10-16T07:04:06;23.20;;;16.45;;
74152;SDS011;62505;46.070;14.492;2022-10-16T07:06:33;26.05;;;16.42;;
74152;SDS011;62505;46.070;14.492;2022-10-16T07:09:01;26.65;;;16.67;;
74152;SDS011;62505;46.070;14.492;2022-10-16T07:11:30;21.25;;;15.80;;
74152;SDS011;62505;46.070;14.492;2022-10-16T07:13:57;24.15;;;15.40;;
74152;SDS011;62505;46.070;14.492;2022-10-16T07:16:25;21.35;;;15.07;;
74152;SDS011;62505;46.070;14.492;2022-10-16T07:18:53;29.67;;;16.20;;
74152;SDS011;62505;46.070;14.492;2022-10-16T07:21:25;23.88;;;16.38;;
74152;SDS011;62505;46.070;14.492;2022-10-16T07:23:54;21.33;;;15.75;;
74152;SDS011;62505;46.070;14.492;2022-10-16T07:26:22;19.42;;;14.95;;
74152;SDS011;62505;46.070;14.492;2022-10-16T07:28:50;22.90;;;16.25;;
74152;SDS011;62505;46.070;14.492;2022-10-16T07:31:17;22.58;;;15.80;;
74152;SDS011;62505;46.070;14.492;2022-10-16T07:33:45;24.85;;;16.20;;
74152;SDS011;62505;46.070;14.492;2022-10-16T07:36:13;22.48;;;15.85;;
74152;SDS011;62505;46.070;14.492;2022-10-16T07:38:42;21.48;;;15.73;;
74152;SDS011;62505;46.070;14.492;2022-10-16T07:41:10;19.05;;;15.30;;
74152;SDS011;62505;46.070;14.492;2022-10-16T07:43:38;22.50;;;15.27;;
74152;SDS011;62505;46.070;14.492;2022-10-16T07:46:05;22.90;;;15.75;;
74152;SDS011;62505;46.070;14.492;2022-10-16T07:48:33;22.40;;;15.88;;
74152;SDS011;62505;46.070;14.492;2022-10-16T07:51:01;24.42;;;15.23;;
74152;SDS011;62505;46.070;14.492;2022-10-16T07:53:29;23.63;;;16.80;;
74152;SDS011;62505;46.070;14.492;2022-10-16T07:55:58;22.35;;;15.93;;
74152;SDS011;62505;46.070;14.492;2022-10-16T07:58:26;20.15;;;15.57;;
74152;SDS011;62505;46.070;14.492;2022-10-16T08:00:53;30.90;;;19.30;;
74152;SDS011;62505;46.070;14.492;2022-10-16T08:03:20;26.92;;;17.05;;
74152;SDS011;62505;46.070;14.492;2022-10-16T08:05:46;26.02;;;16.45;;
74152;SDS011;62505;46.070;14.492;2022-10-16T08:08:14;28.73;;;17.40;;
74152;SDS011;62505;46.070;14.492;2022-10-16T08:10:42;32.53;;;20.67;;
74152;SDS011;62505;46.070;14.492;2022-10-16T08:13:11;32.22;;;20.48;;
74152;SDS011;62505;46.070;14.492;2022-10-16T08:15:39;31.75;;;20.48;;
74152;SDS011;62505;46.070;14.492;2022-10-16T08:18:06;29.17;;;20.63;;
74152;SDS011;62505;46.070;14.492;2022-10-16T08:20:33;32.63;;;20.52;;
74152;SDS011;62505;46.070;14.492;2022-10-16T08:23:00;30.05;;;19.63;;
74152;SDS011;62505;46.070;14.492;2022-10-16T08:25:27;28.58;;;19.98;;
74152;SDS011;62505;46.070;14.492;2022-10-16T08:27:54;29.90;;;20.35;;
74152;SDS011;62505;46.070;14.492;2022-10-16T08:30:23;34.58;;;23.20;;
74152;SDS011;62505;46.070;14.492;2022-10-16T08:32:50;39.38;;;23.63;;
74152;SDS011;62505;46.070;14.492;2022-10-16T08:35:18;30.35;;;22.60;;
74152;SDS011;62505;46.070;14.492;2022-10-16T08:37:45;38.50;;;24.83;;
74152;SDS011;62505;46.070;14.492;2022-10-16T08:40:16;37.70;;;22.67;;
74152;SDS011;62505;46.070;14.492;2022-10-16T08:45:46;35.08;;;23.50;;
74152;SDS011;62505;46.070;14.492;2022-10-16T08:48:34;35.42;;;23.55;;
74152;SDS011;62505;46.070;14.492;2022-10-16T08:51:09;35.22;;;22.77;;
74152;SDS011;62505;46.070;14.492;2022-10-16T08:53:43;34.63;;;22.52;;
74152;SDS011;62505;46.070;14.492;2022-10-16T08:56:15;33.70;;;23.10;;
74152;SDS011;62505;46.070;14.492;2022-10-16T08:58:44;33.97;;;22.45;;
74152;SDS011;62505;46.070;14.492;2022-10-16T09:01:14;36.05;;;23.95;;
74152;SDS011;62505;46.070;14.492;2022-10-16T09:03:48;35.72;;;25.10;;
74152;SDS011;62505;46.070;14.492;2022-10-16T09:06:26;36.30;;;23.73;;
74152;SDS011;62505;46.070;14.492;2022-10-16T09:09:04;50.88;;;25.70;;
74152;SDS011;62505;46.070;14.492;2022-10-16T09:11:44;41.08;;;24.65;;
74152;SDS011;62505;46.070;14.492;2022-10-16T09:14:26;38.88;;;25.27;;
74152;SDS011;62505;46.070;14.492;2022-10-16T09:17:07;33.53;;;23.85;;
74152;SDS011;62505;46.070;14.492;2022-10-16T09:19:44;35.53;;;24.35;;
74152;SDS011;62505;46.070;14.492;2022-10-16T09:22:17;38.45;;;23.55;;
74152;SDS011;62505;46.070;14.492;2022-10-16T09:24:48;34.00;;;24.10;;
74152;SDS011;62505;46.070;14.492;2022-10-16T09:27:15;37.63;;;24.23;;
74152;SDS011;62505;46.070;14.492;2022-10-16T09:29:42;40.72;;;25.13;;
74152;SDS011;62505;46.070;14.492;2022-10-16T09:32:11;38.92;;;24.38;;
74152;SDS011;62505;46.070;14.492;2022-10-16T09:34:41;49.78;;;28.20;;
74152;SDS011;62505;46.070;14.492;2022-10-16T09:37:11;50.08;;;26.90;;
74152;SDS011;62505;46.070;14.492;2022-10-16T09:39:46;56.25;;;33.83;;
74152;SDS011;62505;46.070;14.492;2022-10-16T09:42:16;53.70;;;31.83;;
74152;SDS011;62505;46.070;14.492;2022-10-16T09:44:47;59.38;;;30.25;;
74152;SDS011;62505;46.070;14.492;2022-10-16T09:47:17;68.00;;;31.63;;
74152;SDS011;62505;46.070;14.492;2022-10-16T09:49:50;79.65;;;35.72;;
74152;SDS011;62505;46.070;14.492;2022-10-16T09:52:19;69.20;;;33.03;;
74152;SDS011;62505;46.070;14.492;2022-10-16T09:54:50;59.20;;;32.45;;
74152;SDS011;62505;46.070;14.492;2022-10-16T09:57:18;74.68;;;33.85;;
74152;SDS011;62505;46.070;14.492;2022-10-16T09:59:46;68.68;;;32.58;;
74152;SDS011;62505;46.070;14.492;2022-10-16T10:02:14;60.60;;;32.13;;
74152;SDS011;62505;46.070;14.492;2022-10-16T10:04:47;69.60;;;32.90;;
74152;SDS011;62505;46.070;14.492;2022-10-16T10:07:20;67.80;;;32.45;;
74152;SDS011;62505;46.070;14.492;2022-10-16T10:09:50;85.38;;;32.97;;
74152;SDS011;62505;46.070;14.492;2022-10-16T10:12:19;84.45;;;33.38;;
74152;SDS011;62505;46.070;14.492;2022-10-16T10:14:48;85.18;;;33.13;;
74152;SDS011;62505;46.070;14.492;2022-10-16T10:17:18;63.80;;;34.63;;
74152;SDS011;62505;46.070;14.492;2022-10-16T10:19:50;66.05;;;35.60;;
74152;SDS011;62505;46.070;14.492;2022-10-16T10:22:21;73.47;;;34.28;;
74152;SDS011;62505;46.070;14.492;2022-10-16T10:24:57;62.03;;;33.30;;
74152;SDS011;62505;46.070;14.492;2022-10-16T10:27:39;69.78;;;34.17;;
74152;SDS011;62505;46.070;14.492;2022-10-16T10:30:15;47.53;;;29.25;;
74152;SDS011;62505;46.070;14.492;2022-10-16T10:32:49;46.00;;;27.65;;
74152;SDS011;62505;46.070;14.492;2022-10-16T10:35:28;46.38;;;27.88;;
74152;SDS011;62505;46.070;14.492;2022-10-16T10:38:02;40.53;;;27.08;;
74152;SDS011;62505;46.070;14.492;2022-10-16T10:40:45;36.35;;;24.67;;
74152;SDS011;62505;46.070;14.492;2022-10-16T10:43:20;36.25;;;25.02;;
74152;SDS011;62505;46.070;14.492;2022-10-16T10:45:57;35.97;;;24.25;;
74152;SDS011;62505;46.070;14.492;2022-10-16T10:48:38;34.80;;;23.50;;
74152;SDS011;62505;46.070;14.492;2022-10-16T10:51:19;32.75;;;23.02;;
74152;SDS011;62505;46.070;14.492;2022-10-16T10:53:52;32.78;;;23.35;;
74152;SDS011;62505;46.070;14.492;2022-10-16T10:56:41;31.77;;;23.50;;
74152;SDS011;62505;46.070;14.492;2022-10-16T10:59:16;31.33;;;22.35;;
74152;SDS011;62505;46.070;14.492;2022-10-16T11:02:02;35.33;;;23.98;;
74152;SDS011;62505;46.070;14.492;2022-10-16T11:04:47;32.72;;;23.02;;
74152;SDS011;62505;46.070;14.492;2022-10-16T11:07:27;34.15;;;23.67;;
74152;SDS011;62505;46.070;14.492;2022-10-16T11:09:56;35.45;;;23.17;;
74152;SDS011;62505;46.070;14.492;2022-10-16T11:12:29;41.83;;;25.60;;
74152;SDS011;62505;46.070;14.492;2022-10-16T11:15:02;33.33;;;22.90;;
74152;SDS011;62505;46.070;14.492;2022-10-16T11:17:38;36.28;;;25.02;;
74152;SDS011;62505;46.070;14.492;2022-10-16T11:20:13;35.72;;;23.75;;
74152;SDS011;62505;46.070;14.492;2022-10-16T11:22:44;36.92;;;24.42;;
74152;SDS011;62505;46.070;14.492;2022-10-16T11:25:18;36.08;;;24.58;;
74152;SDS011;62505;46.070;14.492;2022-10-16T11:27:49;37.70;;;24.40;;
74152;SDS011;62505;46.070;14.492;2022-10-16T11:30:21;37.05;;;23.98;;
74152;SDS011;62505;46.070;14.492;2022-10-16T11:32:53;34.33;;;24.13;;
74152;SDS011;62505;46.070;14.492;2022-10-16T11:35:34;36.70;;;24.55;;
74152;SDS011;62505;46.070;14.492;2022-10-16T11:38:08;40.30;;;26.13;;
74152;SDS011;62505;46.070;14.492;2022-10-16T11:40:39;37.67;;;24.67;;
74152;SDS011;62505;46.070;14.492;2022-10-16T11:43:10;37.22;;;25.85;;
74152;SDS011;62505;46.070;14.492;2022-10-16T11:45:42;35.67;;;23.83;;
74152;SDS011;62505;46.070;14.492;2022-10-16T11:48:15;38.45;;;26.00;;
74152;SDS011;62505;46.070;14.492;2022-10-16T11:50:51;35.78;;;23.98;;
74152;SDS011;62505;46.070;14.492;2022-10-16T11:53:23;36.45;;;24.45;;
74152;SDS011;62505;46.070;14.492;2022-10-16T11:56:00;35.35;;;23.52;;
74152;SDS011;62505;46.070;14.492;2022-10-16T11:58:28;36.13;;;24.70;;
74152;SDS011;62505;46.070;14.492;2022-10-16T12:01:01;38.38;;;24.88;;
74152;SDS011;62505;46.070;14.492;2022-10-16T12:03:42;33.15;;;23.95;;
74152;SDS011;62505;46.070;14.492;2022-10-16T12:06:19;40.28;;;24.38;;
74152;SDS011;62505;46.070;14.492;2022-10-16T12:08:55;36.20;;;24.60;;
74152;SDS011;62505;46.070;14.492;2022-10-16T12:11:33;35.65;;;23.27;;
74152;SDS011;62505;46.070;14.492;2022-10-16T12:16:58;33.95;;;23.83;;
74152;SDS011;62505;46.070;14.492;2022-10-16T12:19:28;34.03;;;24.20;;
74152;SDS011;62505;46.070;14.492;2022-10-16T12:21:58;31.73;;;22.83;;
74152;SDS011;62505;46.070;14.492;2022-10-16T12:24:31;34.53;;;23.90;;
74152;SDS011;62505;46.070;14.492;2022-10-16T12:27:01;34.40;;;23.30;;
74152;SDS011;62505;46.070;14.492;2022-10-16T12:29:32;33.72;;;22.70;;
74152;SDS011;62505;46.070;14.492;2022-10-16T12:32:03;34.20;;;22.60;;
74152;SDS011;62505;46.070;14.492;2022-10-16T12:34:35;34.13;;;23.75;;
74152;SDS011;62505;46.070;14.492;2022-10-16T12:37:11;34.58;;;22.85;;
74152;SDS011;62505;46.070;14.492;2022-10-16T12:39:41;30.42;;;21.83;;
74152;SDS011;62505;46.070;14.492;2022-10-16T12:42:31;33.72;;;22.13;;
74152;SDS011;62505;46.070;14.492;2022-10-16T12:45:00;32.38;;;23.00;;
74152;SDS011;62505;46.070;14.492;2022-10-16T12:47:37;33.35;;;23.27;;
74152;SDS011;62505;46.070;14.492;2022-10-16T12:50:23;32.70;;;21.63;;
74152;SDS011;62505;46.070;14.492;2022-10-16T12:52:58;33.08;;;22.52;;
74152;SDS011;62505;46.070;14.492;2022-10-16T12:55:26;33.97;;;22.63;;
74152;SDS011;62505;46.070;14.492;2022-10-16T12:58:09;33.50;;;22.42;;
74152;SDS011;62505;46.070;14.492;2022-10-16T13:00:54;31.80;;;21.58;;
74152;SDS011;62505;46.070;14.492;2022-10-16T13:06:26;33.35;;;22.38;;
74152;SDS011;62505;46.070;14.492;2022-10-16T13:09:08;33.65;;;22.63;;
74152;SDS011;62505;46.070;14.492;2022-10-16T13:12:03;31.42;;;22.67;;
74152;SDS011;62505;46.070;14.492;2022-10-16T13:14:54;32.95;;;22.83;;
74152;SDS011;62505;46.070;14.492;2022-10-16T13:17:51;35.75;;;23.48;;
74152;SDS011;62505;46.070;14.492;2022-10-16T13:20:26;34.50;;;23.13;;
74152;SDS011;62505;46.070;14.492;2022-10-16T13:22:59;34.80;;;23.08;;
74152;SDS011;62505;46.070;14.492;2022-10-16T13:25:38;31.38;;;22.25;;
74152;SDS011;62505;46.070;14.492;2022-10-16T13:28:20;33.20;;;23.00;;
74152;SDS011;62505;46.070;14.492;2022-10-16T13:30:53;33.47;;;22.77;;
74152;SDS011;62505;46.070;14.492;2022-10-16T13:33:24;31.17;;;22.40;;
74152;SDS011;62505;46.070;14.492;2022-10-16T13:35:57;33.10;;;22.10;;
74152;SDS011;62505;46.070;14.492;2022-10-16T13:38:24;31.35;;;22.58;;
74152;SDS011;62505;46.070;14.492;2022-10-16T13:40:55;31.27;;;21.95;;
74152;SDS011;62505;46.070;14.492;2022-10-16T13:43:25;31.50;;;21.88;;
74152;SDS011;62505;46.070;14.492;2022-10-16T13:45:55;31.65;;;22.60;;
74152;SDS011;62505;46.070;14.492;2022-10-16T13:48:24;32.17;;;21.75;;
74152;SDS011;62505;46.070;14.492;2022-10-16T13:51:05;32.42;;;21.83;;
74152;SDS011;62505;46.070;14.492;2022-10-16T13:53:33;29.30;;;20.50;;
74152;SDS011;62505;46.070;14.492;2022-10-16T13:56:04;29.23;;;21.08;;
74152;SDS011;62505;46.070;14.492;2022-10-16T13:58:32;28.27;;;20.70;;
74152;SDS011;62505;46.070;14.492;2022-10-16T14:01:00;32.50;;;22.00;;
74152;SDS011;62505;46.070;14.492;2022-10-16T14:03:28;32.33;;;22.70;;
74152;SDS011;62505;46.070;14.492;2022-10-16T14:05:57;33.17;;;21.77;;
74152;SDS011;62505;46.070;14.492;2022-10-16T14:08:26;28.60;;;21.15;;
74152;SDS011;62505;46.070;14.492;2022-10-16T14:10:55;29.45;;;20.67;;
74152;SDS011;62505;46.070;14.492;2022-10-16T14:13:28;32.88;;;22.45;;
74152;SDS011;62505;46.070;14.492;2022-10-16T14:15:58;31.42;;;21.77;;
74152;SDS011;62505;46.070;14.492;2022-10-16T14:18:29;28.23;;;20.20;;
74152;SDS011;62505;46.070;14.492;2022-10-16T14:21:02;30.60;;;21.73;;
74152;SDS011;62505;46.070;14.492;2022-10-16T14:23:30;30.73;;;21.75;;
74152;SDS011;62505;46.070;14.492;2022-10-16T14:26:06;29.88;;;21.92;;
74152;SDS011;62505;46.070;14.492;2022-10-16T14:28:42;31.02;;;21.98;;
74152;SDS011;62505;46.070;14.492;2022-10-16T14:31:26;29.13;;;21.20;;
74152;SDS011;62505;46.070;14.492;2022-10-16T14:33:55;32.70;;;22.65;;
74152;SDS011;62505;46.070;14.492;2022-10-16T14:36:22;31.35;;;21.70;;